Time;durP1;ratioP1;P1;durP2;ratioP2;P2;SDS_P1;SDS_P2;PMS_P1;PMS_P2;Temp;Humidity;BMP_temperature;BMP_pressure;BME280_temperature;BME280_humidity;BME280_pressure;Samples;Min_cycle;Max_cycle;Signal;HPM_P1;HPM_P2
2022/02/23 00:02:21;;;;;;;;;;;11.70;99.90;;;;;;4972324;28;19957;-89
2022/02/23 00:04:47;;;;;;;;;;;11.70;99.90;;;;;;4972403;28;20495;-90
2022/02/23 00:07:12;;;;;;;;;;;11.70;99.90;;;;;;4955268;28;19942;-90
2022/02/23 00:09:38;;;;;;;;;;;11.70;99.90;;;;;;4955499;28;19921;-91
2022/02/23 00:12:04;;;;;;;;;;;11.70;99.90;;;;;;4972713;28;20257;-91
2022/02/23 00:14:29;;;;;;;;;;;11.70;99.90;;;;;;4956343;28;20382;-90
2022/02/23 00:16:55;;;;;;;;;;;11.70;99.90;;;;;;4972621;28;19914;-90
2022/02/23 00:19:20;;;;;;;;;;;11.70;99.90;;;;;;4971002;28;20001;-90
2022/02/23 00:21:46;;;;;;;;;;;11.60;99.90;;;;;;4971664;28;19910;-91
2022/02/23 00:24:12;;;;;;;;;;;11.60;99.90;;;;;;4972826;28;19915;-90
2022/02/23 00:26:37;;;;;;;;;;;11.60;99.90;;;;;;4955066;28;20402;-90
2022/02/23 00:29:03;;;;;;;;;;;11.60;99.90;;;;;;4971963;28;19910;-90
2022/02/23 00:31:29;;;;;;;;;;;11.50;99.90;;;;;;4955294;28;20278;-92
2022/02/23 00:33:55;;;;;;;;;;;11.50;99.90;;;;;;4973462;28;19910;-89
2022/02/23 00:36:20;;;;;;;;;;;11.60;99.90;;;;;;4971708;28;20371;-91
2022/02/23 00:38:46;;;;;;;;;;;11.60;99.90;;;;;;4973402;28;19914;-90
2022/02/23 00:41:11;;;;;;;;;;;11.60;99.90;;;;;;4975960;28;19914;-91
2022/02/23 00:43:37;;;;;;;;;;;11.60;99.90;;;;;;4958929;28;19916;-90
2022/02/23 00:46:02;;;;;;;;;;;11.70;99.90;;;;;;4976488;28;19957;-90
2022/02/23 00:48:28;;;;;;;;;;;11.70;99.90;;;;;;4975962;28;19914;-91
2022/02/23 00:50:53;;;;;;;;;;;11.70;99.90;;;;;;4958469;28;20007;-91
2022/02/23 00:53:19;;;;;;;;;;;11.60;99.90;;;;;;4955531;29;19957;-89
2022/02/23 00:55:45;;;;;;;;;;;11.60;99.90;;;;;;4955612;28;20159;-91
2022/02/23 00:58:10;;;;;;;;;;;11.60;99.90;;;;;;4967686;28;19910;-90
2022/02/23 01:00:36;;;;;;;;;;;11.70;99.90;;;;;;4975613;28;19969;-90
2022/02/23 01:03:01;;;;;;;;;;;11.60;99.90;;;;;;4975814;28;19910;-91
2022/02/23 01:05:27;;;;;;;;;;;11.60;99.90;;;;;;4976101;28;20001;-90
2022/02/23 01:07:52;;;;;;;;;;;11.60;99.90;;;;;;4974373;28;19910;-92
2022/02/23 01:10:19;;;;;;;;;;;11.60;99.90;;;;;;4975098;28;19914;-92
2022/02/23 01:12:44;;;;;;;;;;;11.60;99.90;;;;;;4975177;28;20048;-89
2022/02/23 01:15:10;;;;;;;;;;;11.60;99.90;;;;;;4973958;28;19989;-90
2022/02/23 01:17:37;;;;;;;;;;;11.70;99.90;;;;;;4975766;28;20016;-91
2022/02/23 01:20:03;;;;;;;;;;;11.60;99.90;;;;;;4975446;28;19910;-89
2022/02/23 01:22:28;;;;;;;;;;;11.60;99.90;;;;;;4958035;28;19910;-90
2022/02/23 01:24:54;;;;;;;;;;;11.70;99.90;;;;;;4975060;28;19957;-90
2022/02/23 01:27:19;;;;;;;;;;;11.60;99.90;;;;;;4973102;28;19962;-90
2022/02/23 01:29:45;;;;;;;;;;;11.50;99.90;;;;;;4974990;28;19910;-91
2022/02/23 01:32:11;;;;;;;;;;;11.40;99.90;;;;;;4975028;28;19910;-91
2022/02/23 01:34:36;;;;;;;;;;;11.50;99.90;;;;;;4967825;28;20260;-91
2022/02/23 01:37:02;;;;;;;;;;;11.60;99.90;;;;;;4974957;28;20493;-89
2022/02/23 01:39:27;;;;;;;;;;;11.70;99.90;;;;;;4975294;28;20309;-90
2022/02/23 01:41:53;;;;;;;;;;;11.70;99.90;;;;;;4974642;28;19945;-89
2022/02/23 01:44:18;;;;;;;;;;;11.60;99.90;;;;;;4975067;28;19957;-90
2022/02/23 01:46:44;;;;;;;;;;;11.60;99.90;;;;;;4974512;28;19918;-91
2022/02/23 01:49:10;;;;;;;;;;;11.50;99.90;;;;;;4974398;28;19916;-92
2022/02/23 01:51:36;;;;;;;;;;;11.50;99.90;;;;;;4973954;28;20406;-90
2022/02/23 01:54:02;;;;;;;;;;;11.60;99.90;;;;;;4973177;28;20387;-90
2022/02/23 01:56:27;;;;;;;;;;;11.60;99.90;;;;;;4974305;28;19942;-88
2022/02/23 01:58:53;;;;;;;;;;;11.60;99.90;;;;;;4974625;28;19910;-90
2022/02/23 02:01:18;;;;;;;;;;;11.50;99.90;;;;;;4974586;28;19922;-90
2022/02/23 02:03:44;;;;;;;;;;;11.60;99.90;;;;;;4974409;28;20034;-89
2022/02/23 02:06:10;;;;;;;;;;;11.50;99.90;;;;;;4972740;28;19925;-90
2022/02/23 02:08:35;;;;;;;;;;;11.50;99.90;;;;;;4976527;28;20286;-90
2022/02/23 02:11:01;;;;;;;;;;;11.50;99.90;;;;;;4974008;28;19917;-91
2022/02/23 02:13:26;;;;;;;;;;;11.50;99.90;;;;;;4973838;28;19914;-91
2022/02/23 02:15:52;;;;;;;;;;;11.50;99.90;;;;;;4972854;28;20061;-91
2022/02/23 02:18:18;;;;;;;;;;;11.50;99.90;;;;;;4974803;28;19959;-94
2022/02/23 02:20:43;;;;;;;;;;;11.60;99.90;;;;;;4973353;28;19933;-92
2022/02/23 02:23:09;;;;;;;;;;;11.60;99.90;;;;;;4954113;28;19965;-91
2022/02/23 02:25:34;;;;;;;;;;;11.60;99.90;;;;;;4974658;28;19920;-91
2022/02/23 02:28:02;;;;;;;;;;;11.60;99.90;;;;;;4972530;28;20371;-92
2022/02/23 02:30:28;;;;;;;;;;;11.60;99.90;;;;;;4957005;28;19910;-92
2022/02/23 02:32:53;;;;;;;;;;;11.60;99.90;;;;;;4956724;28;19964;-90
2022/02/23 02:35:19;;;;;;;;;;;11.60;99.90;;;;;;4953426;29;19935;-90
2022/02/23 02:37:44;;;;;;;;;;;11.60;99.90;;;;;;4972605;28;20311;-91
2022/02/23 02:40:10;;;;;;;;;;;11.60;99.90;;;;;;4956652;28;19921;-92
2022/02/23 02:42:36;;;;;;;;;;;11.60;99.90;;;;;;4956005;28;19945;-92
2022/02/23 02:45:02;;;;;;;;;;;11.50;99.90;;;;;;4974166;28;20381;-91
2022/02/23 02:47:28;;;;;;;;;;;11.50;99.90;;;;;;4956378;28;19914;-93
2022/02/23 02:49:53;;;;;;;;;;;11.60;99.90;;;;;;4973876;28;19910;-91
2022/02/23 02:52:19;;;;;;;;;;;11.70;99.90;;;;;;4973639;28;20149;-92
2022/02/23 02:54:45;;;;;;;;;;;11.60;99.90;;;;;;4971961;28;19906;-92
2022/02/23 02:57:11;;;;;;;;;;;11.60;99.90;;;;;;4973103;28;19976;-91
2022/02/23 02:59:36;;;;;;;;;;;11.60;99.90;;;;;;4973871;28;20374;-89
2022/02/23 03:02:02;;;;;;;;;;;11.60;99.90;;;;;;4972261;28;19993;-91
2022/02/23 03:04:28;;;;;;;;;;;11.70;99.90;;;;;;4973360;28;19910;-91
2022/02/23 03:06:53;;;;;;;;;;;11.80;99.90;;;;;;4973779;28;19918;-91
2022/02/23 03:09:19;;;;;;;;;;;11.70;99.90;;;;;;4973527;28;19927;-89
2022/02/23 03:11:44;;;;;;;;;;;11.80;99.90;;;;;;4955366;28;20315;-90
2022/02/23 03:14:10;;;;;;;;;;;11.70;99.90;;;;;;4973626;28;19980;-90
2022/02/23 03:16:36;;;;;;;;;;;11.70;99.90;;;;;;4973310;28;19910;-91
2022/02/23 03:19:01;;;;;;;;;;;11.70;99.90;;;;;;4974278;28;19921;-89
2022/02/23 03:21:27;;;;;;;;;;;11.70;99.90;;;;;;4956071;28;19921;-91
2022/02/23 03:23:52;;;;;;;;;;;11.70;99.90;;;;;;4972356;28;19995;-91
2022/02/23 03:26:18;;;;;;;;;;;11.80;99.90;;;;;;4971331;28;19922;-89
2022/02/23 03:28:44;;;;;;;;;;;11.70;99.90;;;;;;4971856;28;19992;-89
2022/02/23 03:31:10;;;;;;;;;;;11.80;99.90;;;;;;4972970;28;19916;-90
2022/02/23 03:33:42;;;;;;;;;;;11.70;99.90;;;;;;4955725;28;19910;-91
2022/02/23 03:36:14;;;;;;;;;;;11.80;99.90;;;;;;4955553;28;20291;-90
2022/02/23 03:38:40;;;;;;;;;;;11.70;99.90;;;;;;4955639;28;19944;-91
2022/02/23 03:41:06;;;;;;;;;;;11.70;99.90;;;;;;4972985;28;19997;-91
2022/02/23 03:43:31;;;;;;;;;;;11.70;99.90;;;;;;4973106;28;19953;-89
2022/02/23 03:45:57;;;;;;;;;;;11.70;99.90;;;;;;4952447;29;19929;-91
2022/02/23 03:48:23;;;;;;;;;;;11.50;99.90;;;;;;4966505;28;20001;-90
2022/02/23 03:50:48;;;;;;;;;;;11.50;99.90;;;;;;4969383;28;19910;-90
2022/02/23 03:53:14;;;;;;;;;;;11.60;99.90;;;;;;4971106;28;20300;-90
2022/02/23 03:55:41;;;;;;;;;;;11.60;99.90;;;;;;4972580;28;19976;-91
2022/02/23 03:58:08;;;;;;;;;;;11.60;99.90;;;;;;4954796;28;19917;-91
2022/02/23 04:00:33;;;;;;;;;;;11.60;99.90;;;;;;4952055;29;19910;-91
2022/02/23 04:02:59;;;;;;;;;;;11.60;99.90;;;;;;4969453;28;19917;-90
2022/02/23 04:05:25;;;;;;;;;;;11.60;99.90;;;;;;4972301;28;19922;-90
2022/02/23 04:07:50;;;;;;;;;;;11.70;99.90;;;;;;4973046;28;19910;-91
2022/02/23 04:10:19;;;;;;;;;;;11.60;99.90;;;;;;4972242;28;19973;-90
2022/02/23 04:12:46;;;;;;;;;;;11.70;99.90;;;;;;4955740;28;19936;-91
2022/02/23 04:15:12;;;;;;;;;;;11.70;99.90;;;;;;4980456;28;19910;-91
2022/02/23 04:17:37;;;;;;;;;;;11.60;99.90;;;;;;4983569;28;20359;-91
2022/02/23 04:20:03;;;;;;;;;;;11.60;99.90;;;;;;4983728;28;19949;-91
2022/02/23 04:22:29;;;;;;;;;;;11.70;99.90;;;;;;4985883;28;19910;-91
2022/02/23 04:24:54;;;;;;;;;;;11.70;99.90;;;;;;4986279;28;19910;-90
2022/02/23 04:27:20;;;;;;;;;;;11.70;99.90;;;;;;4968198;28;20298;-91
2022/02/23 04:29:46;;;;;;;;;;;11.70;99.90;;;;;;4985013;28;19914;-91
2022/02/23 04:32:12;;;;;;;;;;;11.70;99.90;;;;;;4993549;28;19917;-89
2022/02/23 04:34:37;;;;;;;;;;;11.80;99.90;;;;;;4975496;28;19910;-90
2022/02/23 04:37:03;;;;;;;;;;;11.70;99.90;;;;;;4992651;28;19910;-90
2022/02/23 04:39:29;;;;;;;;;;;11.70;99.90;;;;;;4991958;28;19910;-90
2022/02/23 04:41:54;;;;;;;;;;;11.80;99.90;;;;;;4970904;28;19918;-92
2022/02/23 04:44:21;;;;;;;;;;;11.70;99.90;;;;;;4992755;28;20012;-91
2022/02/23 04:46:47;;;;;;;;;;;11.80;99.90;;;;;;4994274;28;19982;-89
2022/02/23 04:49:13;;;;;;;;;;;11.70;99.90;;;;;;4992072;28;19910;-91
2022/02/23 04:51:38;;;;;;;;;;;11.50;99.90;;;;;;4991866;28;19934;-91
2022/02/23 04:54:04;;;;;;;;;;;11.60;99.90;;;;;;4973946;28;19910;-90
2022/02/23 04:56:30;;;;;;;;;;;11.60;99.90;;;;;;4988183;28;19910;-91
2022/02/23 04:58:55;;;;;;;;;;;11.60;99.90;;;;;;4992498;28;20466;-90
2022/02/23 05:01:21;;;;;;;;;;;11.60;99.90;;;;;;4994854;28;20008;-90
2022/02/23 05:03:47;;;;;;;;;;;11.70;99.90;;;;;;4995001;28;19918;-89
2022/02/23 05:06:13;;;;;;;;;;;11.60;99.90;;;;;;4972541;28;19919;-90
2022/02/23 05:08:38;;;;;;;;;;;11.60;99.90;;;;;;4966629;28;19941;-91
2022/02/23 05:11:04;;;;;;;;;;;11.60;99.90;;;;;;4964561;28;19917;-89
2022/02/23 05:13:30;;;;;;;;;;;11.60;99.90;;;;;;4982120;28;20367;-90
2022/02/23 05:15:56;;;;;;;;;;;11.60;99.90;;;;;;4981770;28;19933;-89
2022/02/23 05:18:31;;;;;;;;;;;11.50;99.90;;;;;;4963445;28;19965;-90
2022/02/23 05:20:57;;;;;;;;;;;11.40;99.90;;;;;;4980254;28;19922;-90
2022/02/23 05:23:23;;;;;;;;;;;11.40;99.90;;;;;;4980882;28;19910;-91
2022/02/23 05:25:49;;;;;;;;;;;11.40;99.90;;;;;;4959314;28;19993;-91
2022/02/23 05:28:15;;;;;;;;;;;11.50;99.90;;;;;;4976385;28;19929;-90
2022/02/23 05:30:40;;;;;;;;;;;11.60;99.90;;;;;;4977159;28;19910;-90
2022/02/23 05:33:06;;;;;;;;;;;11.50;99.90;;;;;;4976196;28;20260;-90
2022/02/23 05:35:32;;;;;;;;;;;11.60;99.90;;;;;;4958618;28;19946;-90
2022/02/23 05:37:58;;;;;;;;;;;11.50;99.90;;;;;;4958187;28;19910;-90
2022/02/23 05:40:23;;;;;;;;;;;11.50;99.90;;;;;;4975147;28;20122;-89
2022/02/23 05:42:49;;;;;;;;;;;11.40;99.90;;;;;;4957612;28;20390;-89
2022/02/23 05:45:15;;;;;;;;;;;11.40;99.90;;;;;;4975160;28;20430;-90
2022/02/23 05:47:40;;;;;;;;;;;11.40;99.90;;;;;;4957681;28;19937;-90
2022/02/23 05:50:06;;;;;;;;;;;11.40;99.90;;;;;;4975251;28;19957;-90
2022/02/23 05:52:32;;;;;;;;;;;11.30;99.90;;;;;;4957733;28;19914;-90
2022/02/23 05:54:57;;;;;;;;;;;11.30;99.90;;;;;;4957676;28;19916;-90
2022/02/23 05:57:23;;;;;;;;;;;11.30;99.90;;;;;;4974305;28;20457;-90
2022/02/23 05:59:49;;;;;;;;;;;11.30;99.90;;;;;;4956934;28;19957;-90
2022/02/23 06:02:15;;;;;;;;;;;11.30;99.90;;;;;;4974517;28;19910;-90
2022/02/23 06:04:40;;;;;;;;;;;11.20;99.90;;;;;;4957609;28;19910;-93
2022/02/23 06:07:06;;;;;;;;;;;11.20;99.90;;;;;;4957869;28;20033;-91
2022/02/23 06:09:32;;;;;;;;;;;11.20;99.90;;;;;;4974099;28;20306;-90
2022/02/23 06:11:58;;;;;;;;;;;11.20;99.90;;;;;;4974968;28;19910;-91
2022/02/23 06:14:23;;;;;;;;;;;11.20;99.90;;;;;;4975091;28;19910;-91
2022/02/23 06:16:49;;;;;;;;;;;11.20;99.90;;;;;;4957678;28;20441;-89
2022/02/23 06:19:14;;;;;;;;;;;11.20;99.90;;;;;;4973447;28;19911;-91
2022/02/23 06:21:40;;;;;;;;;;;11.20;99.90;;;;;;4957496;28;19910;-92
2022/02/23 06:24:05;;;;;;;;;;;11.20;99.90;;;;;;4974528;28;19910;-91
2022/02/23 11:27:34;;;;;;;;;;;14.50;99.90;;;;;;4847721;29;20446;-95
2022/02/23 13:23:20;;;;;;;;;;;15.20;99.90;;;;;;4765114;30;19930;-94
2022/02/23 13:29:19;;;;;;;;;;;;;;;;;;;;;
2022/02/23 13:31:59;;;;;;;;;;;15.60;99.90;;;;;;4881465;29;19911;-96
2022/02/23 13:34:42;;;;;;;;;;;;;;;;;;;;;
2022/02/23 13:37:27;;;;;;;;;;;15.90;99.90;;;;;;4898322;29;19911;-96
2022/02/23 13:40:11;;;;;;;;;;;;;;;;;;;;;
2022/02/23 13:42:41;;;;;;;;;;;15.80;99.90;;;;;;4967047;28;19911;-94
2022/02/23 13:45:31;;;;;;;;;;;15.90;99.90;;;;;;4954543;29;19922;-95
2022/02/23 13:48:00;;;;;;;;;;;16.10;99.90;;;;;;4949411;28;19985;-94
2022/02/23 13:50:30;;;;;;;;;;;16.20;99.90;;;;;;4939299;29;19914;-94
2022/02/23 13:52:56;;;;;;;;;;;16.20;99.90;;;;;;4938968;29;19911;-94
2022/02/23 13:55:30;;;;;;;;;;;16.00;99.90;;;;;;4941594;29;20056;-94
2022/02/23 13:58:06;;;;;;;;;;;15.90;99.90;;;;;;4929361;29;19910;-93
2022/02/23 14:03:34;;;;;;;;;;;16.20;99.90;;;;;;4917468;29;19911;-94
2022/02/23 14:09:43;;;;;;;;;;;;;;;;;;;;;
2022/02/23 14:19:43;;;;;;;;;;;16.00;99.90;;;;;;4844193;29;19920;-95
2022/02/23 14:28:57;;;;;;;;;;;16.40;99.90;;;;;;4825477;29;20575;-93
2022/02/23 14:38:31;;;;;;;;;;;16.20;99.90;;;;;;4825348;29;19916;-95
2022/02/23 14:41:19;;;;;;;;;;;15.80;99.90;;;;;;4851319;29;19916;-95
2022/02/23 14:50:12;;;;;;;;;;;;;;;;;;;;;
2022/02/23 14:52:43;;;;;;;;;;;16.20;99.90;;;;;;4916907;29;19917;-95
2022/02/23 14:58:06;;;;;;;;;;;;;;;;;;;;;
2022/02/23 15:00:32;;;;;;;;;;;16.70;99.90;;;;;;4916200;29;19917;-94
2022/02/23 15:03:06;;;;;;;;;;;16.50;99.90;;;;;;4932026;29;19986;-95
2022/02/23 15:05:34;;;;;;;;;;;16.60;99.90;;;;;;4928790;29;19911;-94
2022/02/23 15:08:26;;;;;;;;;;;16.60;99.90;;;;;;4916388;29;20035;-95
2022/02/23 15:10:59;;;;;;;;;;;16.70;99.90;;;;;;4942264;29;19915;-95
2022/02/23 15:13:24;;;;;;;;;;;16.40;99.90;;;;;;4940372;29;19943;-94
2022/02/23 15:15:54;;;;;;;;;;;16.50;99.90;;;;;;4926614;29;19911;-94
2022/02/23 15:18:22;;;;;;;;;;;16.50;99.90;;;;;;4933753;29;19993;-94
2022/02/23 15:20:48;;;;;;;;;;;16.50;99.90;;;;;;4950693;29;19914;-94
2022/02/23 15:23:34;;;;;;;;;;;16.60;99.90;;;;;;4939323;29;20001;-93
2022/02/23 15:25:59;;;;;;;;;;;16.60;99.90;;;;;;4948565;29;19962;-94
2022/02/23 15:28:32;;;;;;;;;;;16.50;99.90;;;;;;4943398;29;19926;-94
2022/02/23 15:30:58;;;;;;;;;;;17.00;99.90;;;;;;4964657;29;19911;-93
2022/02/23 15:33:23;;;;;;;;;;;17.40;99.90;;;;;;4958313;29;20140;-93
2022/02/23 15:35:49;;;;;;;;;;;17.40;99.90;;;;;;4964930;29;19899;-92
2022/02/23 15:38:16;;;;;;;;;;;17.70;99.90;;;;;;4957557;29;19910;-94
2022/02/23 15:40:42;;;;;;;;;;;18.10;99.90;;;;;;4963090;29;19911;-94
2022/02/23 15:43:10;;;;;;;;;;;18.10;99.90;;;;;;4954279;29;19911;-93
2022/02/23 15:45:39;;;;;;;;;;;17.60;99.90;;;;;;4945716;29;20363;-93
2022/02/23 15:48:05;;;;;;;;;;;17.60;99.90;;;;;;4974168;29;19922;-92
2022/02/23 15:50:33;;;;;;;;;;;17.80;99.90;;;;;;4952777;29;19910;-93
2022/02/23 15:52:59;;;;;;;;;;;18.20;99.90;;;;;;4956448;29;19911;-94
2022/02/23 15:55:25;;;;;;;;;;;18.00;99.90;;;;;;4953975;29;19917;-94
2022/02/23 15:57:50;;;;;;;;;;;18.50;99.90;;;;;;4954284;29;19970;-93
2022/02/23 16:00:16;;;;;;;;;;;18.10;99.90;;;;;;4955883;29;19966;-94
2022/02/23 16:02:44;;;;;;;;;;;17.90;99.90;;;;;;4959359;28;20103;-94
2022/02/23 16:05:09;;;;;;;;;;;17.60;99.90;;;;;;4953616;29;19910;-94
2022/02/23 16:07:35;;;;;;;;;;;17.90;99.90;;;;;;4955548;29;20501;-95
2022/02/23 16:10:00;;;;;;;;;;;17.90;99.90;;;;;;4958599;28;19946;-96
2022/02/23 16:12:26;;;;;;;;;;;18.00;99.90;;;;;;4959987;28;19909;-94
2022/02/23 16:14:52;;;;;;;;;;;17.90;99.90;;;;;;4949260;28;19942;-95
2022/02/23 16:17:21;;;;;;;;;;;18.30;99.90;;;;;;4944092;29;20383;-94
2022/02/23 16:19:49;;;;;;;;;;;18.70;99.90;;;;;;4941359;29;20375;-94
2022/02/23 16:22:16;;;;;;;;;;;19.00;99.90;;;;;;4941500;29;19959;-95
2022/02/23 16:24:42;;;;;;;;;;;19.20;99.90;;;;;;4942241;29;19911;-95
2022/02/23 16:27:09;;;;;;;;;;;19.10;99.90;;;;;;4940390;29;19933;-95
2022/02/23 16:29:35;;;;;;;;;;;18.50;99.90;;;;;;4940512;29;19911;-95
2022/02/23 16:32:01;;;;;;;;;;;18.40;99.90;;;;;;4940123;29;19941;-95
2022/02/23 16:34:27;;;;;;;;;;;18.00;99.90;;;;;;4939100;29;19911;-95
2022/02/23 16:36:54;;;;;;;;;;;16.80;99.90;;;;;;4955966;29;19915;-94
2022/02/23 16:39:20;;;;;;;;;;;15.90;99.90;;;;;;4941691;29;19911;-95
2022/02/23 16:41:45;;;;;;;;;;;15.40;99.90;;;;;;4940570;29;20379;-94
2022/02/23 16:44:11;;;;;;;;;;;15.00;99.90;;;;;;4940326;29;19961;-94
2022/02/23 16:46:37;;;;;;;;;;;14.60;99.90;;;;;;4945462;29;20033;-93
2022/02/23 16:49:04;;;;;;;;;;;14.20;99.90;;;;;;4938762;29;19918;-94
2022/02/23 16:51:29;;;;;;;;;;;13.80;99.90;;;;;;4956024;29;20009;-93
2022/02/23 16:53:55;;;;;;;;;;;13.70;99.90;;;;;;4940739;29;19961;-94
2022/02/23 16:56:21;;;;;;;;;;;13.60;99.90;;;;;;4942732;29;19938;-94
2022/02/23 16:58:46;;;;;;;;;;;13.60;99.90;;;;;;4940667;29;20056;-94
2022/02/23 17:01:12;;;;;;;;;;;13.40;99.90;;;;;;4949189;29;20352;-95
2022/02/23 17:03:38;;;;;;;;;;;13.40;99.90;;;;;;4954129;29;19942;-95
2022/02/23 17:06:03;;;;;;;;;;;13.20;99.90;;;;;;4940619;29;19930;-94
2022/02/23 17:08:29;;;;;;;;;;;13.10;99.90;;;;;;4942849;29;19918;-95
2022/02/23 17:10:55;;;;;;;;;;;13.00;99.90;;;;;;4943651;29;19974;-94
2022/02/23 17:13:21;;;;;;;;;;;12.80;99.90;;;;;;4954678;29;19958;-94
2022/02/23 17:15:47;;;;;;;;;;;12.70;99.90;;;;;;4949979;29;19981;-94
2022/02/23 17:18:17;;;;;;;;;;;12.70;99.90;;;;;;4944078;29;20073;-94
2022/02/23 17:20:47;;;;;;;;;;;12.50;99.90;;;;;;4944831;29;19910;-94
2022/02/23 17:23:12;;;;;;;;;;;12.40;99.90;;;;;;4947109;29;19911;-94
2022/02/23 17:25:38;;;;;;;;;;;12.40;99.90;;;;;;4943531;29;19910;-93
2022/02/23 17:28:07;;;;;;;;;;;12.40;99.90;;;;;;4952891;29;19921;-95
2022/02/23 17:30:33;;;;;;;;;;;12.30;99.90;;;;;;4954505;29;19895;-95
2022/02/23 17:32:59;;;;;;;;;;;12.20;99.90;;;;;;4938859;29;19911;-94
2022/02/23 17:35:25;;;;;;;;;;;12.10;99.90;;;;;;4949361;29;19918;-94
2022/02/23 17:37:50;;;;;;;;;;;12.10;99.90;;;;;;4968394;29;19917;-93
2022/02/23 17:40:16;;;;;;;;;;;12.10;99.90;;;;;;4960088;29;19911;-95
2022/02/23 17:42:41;;;;;;;;;;;12.00;99.90;;;;;;4958899;29;19910;-95
2022/02/23 17:46:31;;;;;;;;;;;11.90;99.90;;;;;;4944951;29;19923;-96
2022/02/23 17:48:34;;;;;;;;;;;11.80;99.90;;;;;;4882014;29;20325;-95
2022/02/23 17:54:43;;;;;;;;;;;11.60;99.90;;;;;;4888227;29;19912;-96
2022/02/23 18:09:40;;;;;;;;;;;;;;;;;;;;;
2022/02/23 18:15:30;;;;;;;;;;;;;;;;;;;;;
2022/02/23 18:21:02;;;;;;;;;;;11.40;99.90;;;;;;4886666;29;19935;-92
2022/02/23 18:23:30;;;;;;;;;;;11.40;99.90;;;;;;4939098;29;19919;-91
2022/02/23 18:25:56;;;;;;;;;;;11.30;99.90;;;;;;4952736;29;20099;-91
2022/02/23 18:28:21;;;;;;;;;;;11.30;99.90;;;;;;4937493;29;19910;-91
2022/02/23 18:30:47;;;;;;;;;;;11.30;99.90;;;;;;4949018;29;19973;-91
2022/02/23 18:33:13;;;;;;;;;;;11.40;99.90;;;;;;4959949;28;19911;-92
2022/02/23 18:35:38;;;;;;;;;;;11.30;99.90;;;;;;4944081;29;19945;-91
2022/02/23 18:38:05;;;;;;;;;;;11.30;99.90;;;;;;4948132;29;19913;-92
2022/02/23 18:40:30;;;;;;;;;;;11.30;99.90;;;;;;4931221;29;19982;-91
2022/02/23 18:42:56;;;;;;;;;;;11.30;99.90;;;;;;4952918;29;19906;-91
2022/02/23 18:45:21;;;;;;;;;;;11.30;99.90;;;;;;4953590;29;20198;-91
2022/02/23 18:47:47;;;;;;;;;;;11.30;99.90;;;;;;4954191;29;19915;-93
2022/02/23 18:50:14;;;;;;;;;;;11.30;99.90;;;;;;4966556;28;20005;-91
2022/02/23 18:52:40;;;;;;;;;;;11.20;99.90;;;;;;4963358;29;20245;-93
2022/02/23 18:55:15;;;;;;;;;;;11.20;99.90;;;;;;4952270;29;19906;-94
2022/02/23 18:57:42;;;;;;;;;;;11.20;99.90;;;;;;4984390;28;19913;-93
2022/02/23 19:00:11;;;;;;;;;;;11.20;99.90;;;;;;4967848;28;19945;-92
2022/02/23 19:02:37;;;;;;;;;;;11.20;99.90;;;;;;4968180;28;19913;-90
2022/02/23 19:05:03;;;;;;;;;;;11.20;99.90;;;;;;4951560;29;19969;-90
2022/02/23 19:07:29;;;;;;;;;;;11.20;99.90;;;;;;4960956;28;20032;-89
2022/02/23 19:09:54;;;;;;;;;;;11.20;99.90;;;;;;4976150;28;19913;-89
2022/02/23 19:12:20;;;;;;;;;;;11.10;99.90;;;;;;4978531;28;19942;-89
2022/02/23 19:14:45;;;;;;;;;;;11.10;99.90;;;;;;4953643;28;19922;-89
2022/02/23 19:17:12;;;;;;;;;;;11.10;99.90;;;;;;4950792;29;19906;-89
2022/02/23 19:19:38;;;;;;;;;;;11.10;99.90;;;;;;4967702;28;19918;-89
2022/02/23 19:22:04;;;;;;;;;;;11.10;99.90;;;;;;4980577;28;19957;-89
2022/02/23 19:24:30;;;;;;;;;;;11.10;99.90;;;;;;4965253;28;20187;-89
2022/02/23 19:26:55;;;;;;;;;;;11.00;99.90;;;;;;4982809;28;19914;-89
2022/02/23 19:29:21;;;;;;;;;;;11.00;99.90;;;;;;4982767;28;19972;-89
2022/02/23 19:31:48;;;;;;;;;;;10.90;99.90;;;;;;4965705;28;19917;-90
2022/02/23 19:34:14;;;;;;;;;;;10.90;99.90;;;;;;4982660;28;19977;-90
2022/02/23 19:36:39;;;;;;;;;;;10.90;99.90;;;;;;4965186;28;20199;-89
2022/02/23 19:39:05;;;;;;;;;;;10.90;99.90;;;;;;4982304;28;19922;-89
2022/02/23 19:41:30;;;;;;;;;;;10.90;99.90;;;;;;4982810;28;19929;-90
2022/02/23 19:43:56;;;;;;;;;;;10.80;99.90;;;;;;4955234;28;19910;-90
2022/02/23 19:46:22;;;;;;;;;;;10.80;99.90;;;;;;4956986;28;19985;-89
2022/02/23 19:48:47;;;;;;;;;;;10.80;99.90;;;;;;4953743;28;19911;-89
2022/02/23 19:51:13;;;;;;;;;;;10.80;99.90;;;;;;4955030;28;19957;-90
2022/02/23 19:53:38;;;;;;;;;;;10.80;99.90;;;;;;4954550;28;20391;-89
2022/02/23 19:56:06;;;;;;;;;;;10.80;99.90;;;;;;4950846;28;19914;-89
2022/02/23 19:58:32;;;;;;;;;;;10.80;99.90;;;;;;4959396;28;19949;-90
2022/02/23 20:00:58;;;;;;;;;;;10.80;99.90;;;;;;4962560;28;19953;-89
2022/02/23 20:03:23;;;;;;;;;;;10.70;99.90;;;;;;4961134;28;19907;-89
2022/02/23 20:05:49;;;;;;;;;;;10.80;99.90;;;;;;4961907;28;19953;-89
2022/02/23 20:08:15;;;;;;;;;;;10.70;99.90;;;;;;4961790;28;19907;-89
2022/02/23 20:10:40;;;;;;;;;;;10.70;99.90;;;;;;4961386;28;19915;-89
2022/02/23 20:13:06;;;;;;;;;;;10.70;99.90;;;;;;4979248;28;19906;-89
2022/02/23 20:15:36;;;;;;;;;;;10.60;99.90;;;;;;4981100;28;19978;-89
2022/02/23 20:18:02;;;;;;;;;;;10.60;99.90;;;;;;4980992;28;19921;-89
2022/02/23 20:20:28;;;;;;;;;;;10.60;99.90;;;;;;4964014;28;19913;-89
2022/02/23 20:22:54;;;;;;;;;;;10.60;99.90;;;;;;4978971;28;20088;-90
2022/02/23 20:25:20;;;;;;;;;;;10.50;99.90;;;;;;4980971;28;19914;-89
2022/02/23 20:27:45;;;;;;;;;;;10.50;99.90;;;;;;4963122;28;19973;-89
2022/02/23 20:30:12;;;;;;;;;;;10.50;99.90;;;;;;4963189;28;19945;-89
2022/02/23 20:32:38;;;;;;;;;;;10.50;99.90;;;;;;4963410;28;19913;-88
2022/02/23 20:35:04;;;;;;;;;;;10.50;99.90;;;;;;4963551;28;19906;-89
2022/02/23 20:37:30;;;;;;;;;;;10.40;99.90;;;;;;4968321;28;20003;-89
2022/02/23 20:39:59;;;;;;;;;;;10.40;99.90;;;;;;4945377;28;19945;-89
2022/02/23 20:42:25;;;;;;;;;;;10.40;99.90;;;;;;4963345;28;19985;-89
2022/02/23 20:44:50;;;;;;;;;;;10.40;99.90;;;;;;4880253;29;1859634;-89
2022/02/23 20:47:16;;;;;;;;;;;10.40;99.90;;;;;;4946094;29;19925;-89
2022/02/23 20:49:41;;;;;;;;;;;10.40;99.90;;;;;;4946058;29;19907;-89
2022/02/23 20:52:07;;;;;;;;;;;10.30;99.90;;;;;;4960905;29;19906;-89
2022/02/23 20:54:32;;;;;;;;;;;10.30;99.90;;;;;;4961078;28;19906;-89
2022/02/23 20:56:58;;;;;;;;;;;10.30;99.90;;;;;;4949552;29;19914;-89
2022/02/23 20:59:24;;;;;;;;;;;10.30;99.90;;;;;;4949370;29;19910;-89
2022/02/23 21:01:49;;;;;;;;;;;10.30;99.90;;;;;;4940966;29;19998;-89
2022/02/23 21:04:15;;;;;;;;;;;10.30;99.90;;;;;;4961743;29;20179;-89
2022/02/23 21:06:41;;;;;;;;;;;10.30;99.90;;;;;;4947352;29;20222;-89
2022/02/23 21:09:06;;;;;;;;;;;10.20;99.90;;;;;;4949898;29;19913;-88
2022/02/23 21:11:32;;;;;;;;;;;10.20;99.90;;;;;;4948819;29;19910;-89
2022/02/23 21:13:57;;;;;;;;;;;10.20;99.90;;;;;;4948470;29;19921;-88
2022/02/23 21:16:23;;;;;;;;;;;10.20;99.90;;;;;;4949506;29;19973;-89
2022/02/23 21:18:48;;;;;;;;;;;10.20;99.90;;;;;;4948502;29;20107;-89
2022/02/23 21:21:14;;;;;;;;;;;10.10;99.90;;;;;;4966851;29;20183;-88
2022/02/23 21:23:42;;;;;;;;;;;10.10;99.90;;;;;;4965123;29;20210;-89
2022/02/23 21:26:08;;;;;;;;;;;10.10;99.90;;;;;;4950867;29;20439;-89
2022/02/23 21:28:34;;;;;;;;;;;10.10;99.90;;;;;;4942650;29;19942;-89
2022/02/23 21:30:59;;;;;;;;;;;10.10;99.90;;;;;;4947434;29;19953;-89
2022/02/23 21:33:25;;;;;;;;;;;10.10;99.90;;;;;;4949093;29;19911;-89
2022/02/23 21:35:51;;;;;;;;;;;10.10;99.90;;;;;;4950783;29;19907;-89
2022/02/23 21:38:16;;;;;;;;;;;10.00;99.90;;;;;;4942312;29;19927;-89
2022/02/23 21:40:42;;;;;;;;;;;10.10;99.90;;;;;;4937635;29;19921;-88
2022/02/23 21:43:07;;;;;;;;;;;10.10;99.90;;;;;;4939682;29;19954;-89
2022/02/23 21:45:33;;;;;;;;;;;10.10;99.90;;;;;;4959676;28;19922;-88
2022/02/23 21:48:00;;;;;;;;;;;10.10;99.90;;;;;;4955891;28;19925;-88
2022/02/23 21:50:27;;;;;;;;;;;10.00;99.90;;;;;;4972219;28;20076;-89
2022/02/23 21:52:52;;;;;;;;;;;10.00;99.90;;;;;;4977030;28;19906;-89
2022/02/23 21:55:18;;;;;;;;;;;10.00;99.90;;;;;;4976594;28;19906;-89
2022/02/23 21:57:43;;;;;;;;;;;10.00;99.90;;;;;;4975108;28;19968;-89
2022/02/23 22:00:09;;;;;;;;;;;10.00;99.90;;;;;;4974210;28;19910;-89
2022/02/23 22:02:36;;;;;;;;;;;10.00;99.90;;;;;;4941927;28;19914;-90
2022/02/23 22:05:01;;;;;;;;;;;9.90;99.90;;;;;;4939045;28;20214;-89
2022/02/23 22:07:28;;;;;;;;;;;9.90;99.90;;;;;;4965930;28;20046;-89
2022/02/23 22:09:53;;;;;;;;;;;9.90;99.90;;;;;;4976568;28;19910;-89
2022/02/23 22:12:19;;;;;;;;;;;9.90;99.90;;;;;;4962491;28;20013;-92
2022/02/23 22:14:44;;;;;;;;;;;9.90;99.90;;;;;;4962392;28;19910;-90
2022/02/23 22:17:10;;;;;;;;;;;9.90;99.90;;;;;;4967047;28;20281;-90
2022/02/23 22:19:35;;;;;;;;;;;9.80;99.90;;;;;;4984804;28;19913;-90
2022/02/23 22:22:01;;;;;;;;;;;9.80;99.90;;;;;;4985254;28;19981;-90